sensor_id;sensor_type;location;lat;lon;timestamp;temperature;humidity
33594;DHT22;19920;52.242;20.940;2023-04-03T00:01:09;2.60;99.90
33594;DHT22;19920;52.242;20.940;2023-04-03T00:03:35;2.60;99.90
33594;DHT22;19920;52.242;20.940;2023-04-03T00:06:01;2.60;99.90
33594;DHT22;19920;52.242;20.940;2023-04-03T00:08:27;2.50;99.90
33594;DHT22;19920;52.242;20.940;2023-04-03T00:10:52;2.40;99.90
33594;DHT22;19920;52.242;20.940;2023-04-03T00:13:18;2.40;99.90
33594;DHT22;19920;52.242;20.940;2023-04-03T00:15:44;2.40;99.90
33594;DHT22;19920;52.242;20.940;2023-04-03T00:18:10;2.30;99.90
33594;DHT22;19920;52.242;20.940;2023-04-03T00:20:36;2.30;99.90
33594;DHT22;19920;52.242;20.940;2023-04-03T00:23:02;2.20;99.90
33594;DHT22;19920;52.242;20.940;2023-04-03T00:25:28;2.30;99.90
33594;DHT22;19920;52.242;20.940;2023-04-03T00:27:53;2.20;99.90
33594;DHT22;19920;52.242;20.940;2023-04-03T00:30:21;2.50;99.90
33594;DHT22;19920;52.242;20.940;2023-04-03T00:32:50;2.10;99.90
33594;DHT22;19920;52.242;20.940;2023-04-03T00:35:17;2.00;99.90
33594;DHT22;19920;52.242;20.940;2023-04-03T00:37:43;2.00;99.90
33594;DHT22;19920;52.242;20.940;2023-04-03T00:40:09;2.00;99.90
33594;DHT22;19920;52.242;20.940;2023-04-03T00:42:43;1.90;99.90
33594;DHT22;19920;52.242;20.940;2023-04-03T00:47:43;1.90;99.90
33594;DHT22;19920;52.242;20.940;2023-04-03T00:50:09;1.80;99.90
33594;DHT22;19920;52.242;20.940;2023-04-03T00:52:36;1.80;99.90
33594;DHT22;19920;52.242;20.940;2023-04-03T00:55:05;1.70;99.90
33594;DHT22;19920;52.242;20.940;2023-04-03T00:57:33;1.70;99.90
33594;DHT22;19920;52.242;20.940;2023-04-03T01:00:03;1.70;99.90
33594;DHT22;19920;52.242;20.940;2023-04-03T01:02:29;1.70;99.90
33594;DHT22;19920;52.242;20.940;2023-04-03T01:04:55;1.70;99.90
33594;DHT22;19920;52.242;20.940;2023-04-03T01:07:22;1.70;99.90
33594;DHT22;19920;52.242;20.940;2023-04-03T01:09:52;1.50;99.90
33594;DHT22;19920;52.242;20.940;2023-04-03T01:12:51;1.50;99.90
33594;DHT22;19920;52.242;20.940;2023-04-03T01:15:14;1.50;99.90
33594;DHT22;19920;52.242;20.940;2023-04-03T01:17:45;1.50;99.90
33594;DHT22;19920;52.242;20.940;2023-04-03T01:25:37;1.30;99.90
33594;DHT22;19920;52.242;20.940;2023-04-03T01:28:04;1.30;99.90
33594;DHT22;19920;52.242;20.940;2023-04-03T01:30:34;1.30;99.90
33594;DHT22;19920;52.242;20.940;2023-04-03T01:33:01;1.30;99.90
33594;DHT22;19920;52.242;20.940;2023-04-03T01:35:27;1.30;99.90
33594;DHT22;19920;52.242;20.940;2023-04-03T01:37:53;1.30;99.90
33594;DHT22;19920;52.242;20.940;2023-04-03T01:40:18;1.30;99.90
33594;DHT22;19920;52.242;20.940;2023-04-03T01:42:45;1.20;99.90
33594;DHT22;19920;52.242;20.940;2023-04-03T01:45:10;1.20;99.90
33594;DHT22;19920;52.242;20.940;2023-04-03T01:47:36;1.20;99.90
33594;DHT22;19920;52.242;20.940;2023-04-03T01:50:02;1.20;99.90
33594;DHT22;19920;52.242;20.940;2023-04-03T01:52:28;1.10;99.90
33594;DHT22;19920;52.242;20.940;2023-04-03T01:54:53;1.00;99.90
33594;DHT22;19920;52.242;20.940;2023-04-03T01:57:19;1.10;99.90
33594;DHT22;19920;52.242;20.940;2023-04-03T01:59:45;1.10;99.90
33594;DHT22;19920;52.242;20.940;2023-04-03T02:02:10;1.10;99.90
33594;DHT22;19920;52.242;20.940;2023-04-03T02:04:37;1.00;99.90
33594;DHT22;19920;52.242;20.940;2023-04-03T02:07:03;1.00;99.90
33594;DHT22;19920;52.242;20.940;2023-04-03T02:09:29;1.00;99.90
33594;DHT22;19920;52.242;20.940;2023-04-03T02:11:54;0.90;99.90
33594;DHT22;19920;52.242;20.940;2023-04-03T02:14:20;0.90;99.90
33594;DHT22;19920;52.242;20.940;2023-04-03T02:16:47;0.90;99.90
33594;DHT22;19920;52.242;20.940;2023-04-03T02:19:13;0.80;99.90
33594;DHT22;19920;52.242;20.940;2023-04-03T02:21:38;0.80;99.90
33594;DHT22;19920;52.242;20.940;2023-04-03T02:24:04;0.80;99.90
33594;DHT22;19920;52.242;20.940;2023-04-03T02:26:30;0.70;99.90
33594;DHT22;19920;52.242;20.940;2023-04-03T02:28:56;0.80;99.90
33594;DHT22;19920;52.242;20.940;2023-04-03T02:31:22;0.80;99.90
33594;DHT22;19920;52.242;20.940;2023-04-03T02:33:47;0.80;99.90
33594;DHT22;19920;52.242;20.940;2023-04-03T02:36:13;0.80;99.90
33594;DHT22;19920;52.242;20.940;2023-04-03T02:38:38;0.70;99.90
33594;DHT22;19920;52.242;20.940;2023-04-03T02:41:07;0.70;99.90
33594;DHT22;19920;52.242;20.940;2023-04-03T02:43:33;0.70;99.90
33594;DHT22;19920;52.242;20.940;2023-04-03T02:45:59;0.70;99.90
33594;DHT22;19920;52.242;20.940;2023-04-03T02:48:25;0.60;99.90
33594;DHT22;19920;52.242;20.940;2023-04-03T02:50:51;0.60;99.90
33594;DHT22;19920;52.242;20.940;2023-04-03T02:53:17;0.60;99.90
33594;DHT22;19920;52.242;20.940;2023-04-03T02:55:44;0.60;99.90
33594;DHT22;19920;52.242;20.940;2023-04-03T02:58:10;0.60;99.90
33594;DHT22;19920;52.242;20.940;2023-04-03T03:00:36;0.50;99.90
33594;DHT22;19920;52.242;20.940;2023-04-03T03:03:02;0.50;99.90
33594;DHT22;19920;52.242;20.940;2023-04-03T03:05:28;0.50;99.90
33594;DHT22;19920;52.242;20.940;2023-04-03T03:07:54;0.40;99.90
33594;DHT22;19920;52.242;20.940;2023-04-03T03:10:21;0.40;99.90
33594;DHT22;19920;52.242;20.940;2023-04-03T03:12:47;0.40;99.90
33594;DHT22;19920;52.242;20.940;2023-04-03T03:15:12;0.40;99.90
33594;DHT22;19920;52.242;20.940;2023-04-03T03:17:38;0.30;99.90
33594;DHT22;19920;52.242;20.940;2023-04-03T03:20:05;0.30;99.90
33594;DHT22;19920;52.242;20.940;2023-04-03T03:22:31;0.30;99.90
33594;DHT22;19920;52.242;20.940;2023-04-03T03:24:57;0.30;99.90
33594;DHT22;19920;52.242;20.940;2023-04-03T03:27:22;0.20;99.90
33594;DHT22;19920;52.242;20.940;2023-04-03T03:29:49;0.20;99.90
33594;DHT22;19920;52.242;20.940;2023-04-03T03:32:15;0.20;99.90
33594;DHT22;19920;52.242;20.940;2023-04-03T03:34:40;0.10;99.90
33594;DHT22;19920;52.242;20.940;2023-04-03T03:37:06;0.10;99.90
33594;DHT22;19920;52.242;20.940;2023-04-03T03:39:32;0.10;99.90
33594;DHT22;19920;52.242;20.940;2023-04-03T03:41:57;0.10;99.90
33594;DHT22;19920;52.242;20.940;2023-04-03T03:44:23;0.10;99.90
33594;DHT22;19920;52.242;20.940;2023-04-03T03:46:48;0.10;99.90
33594;DHT22;19920;52.242;20.940;2023-04-03T03:49:14;0.10;99.90
33594;DHT22;19920;52.242;20.940;2023-04-03T03:51:40;0.00;99.90
33594;DHT22;19920;52.242;20.940;2023-04-03T03:54:06;0.00;99.90
33594;DHT22;19920;52.242;20.940;2023-04-03T03:56:31;0.00;99.90
33594;DHT22;19920;52.242;20.940;2023-04-03T03:58:57;0.00;99.90
33594;DHT22;19920;52.242;20.940;2023-04-03T04:01:23;0.00;99.90
33594;DHT22;19920;52.242;20.940;2023-04-03T04:03:49;-0.10;99.90
33594;DHT22;19920;52.242;20.940;2023-04-03T04:06:15;-0.10;99.90
33594;DHT22;19920;52.242;20.940;2023-04-03T04:08:41;0.00;99.90
33594;DHT22;19920;52.242;20.940;2023-04-03T04:11:07;0.00;99.90
33594;DHT22;19920;52.242;20.940;2023-04-03T04:13:33;-0.10;99.90
33594;DHT22;19920;52.242;20.940;2023-04-03T04:15:59;-0.10;99.90
33594;DHT22;19920;52.242;20.940;2023-04-03T04:18:25;0.00;99.90
33594;DHT22;19920;52.242;20.940;2023-04-03T04:20:50;0.00;99.90
33594;DHT22;19920;52.242;20.940;2023-04-03T04:23:17;0.00;99.90
33594;DHT22;19920;52.242;20.940;2023-04-03T04:25:47;-0.10;99.90
33594;DHT22;19920;52.242;20.940;2023-04-03T04:28:13;0.00;99.90
33594;DHT22;19920;52.242;20.940;2023-04-03T04:30:38;0.00;99.90
33594;DHT22;19920;52.242;20.940;2023-04-03T04:33:04;0.00;99.90
33594;DHT22;19920;52.242;20.940;2023-04-03T04:35:30;-0.10;99.90
33594;DHT22;19920;52.242;20.940;2023-04-03T04:37:56;0.00;99.90
33594;DHT22;19920;52.242;20.940;2023-04-03T04:40:22;0.00;99.90
33594;DHT22;19920;52.242;20.940;2023-04-03T04:42:47;-0.10;99.90
33594;DHT22;19920;52.242;20.940;2023-04-03T04:45:13;0.00;99.90
33594;DHT22;19920;52.242;20.940;2023-04-03T04:47:40;0.00;99.90
33594;DHT22;19920;52.242;20.940;2023-04-03T04:50:06;-0.10;99.90
33594;DHT22;19920;52.242;20.940;2023-04-03T04:52:32;0.00;99.90
33594;DHT22;19920;52.242;20.940;2023-04-03T04:54:58;0.10;99.90
33594;DHT22;19920;52.242;20.940;2023-04-03T04:57:23;0.10;99.90
33594;DHT22;19920;52.242;20.940;2023-04-03T04:59:49;0.10;99.90
33594;DHT22;19920;52.242;20.940;2023-04-03T05:02:15;0.10;99.90
33594;DHT22;19920;52.242;20.940;2023-04-03T05:04:41;0.10;99.90
33594;DHT22;19920;52.242;20.940;2023-04-03T05:07:06;0.20;99.90
33594;DHT22;19920;52.242;20.940;2023-04-03T05:09:32;0.20;99.90
33594;DHT22;19920;52.242;20.940;2023-04-03T05:11:58;0.20;99.90
33594;DHT22;19920;52.242;20.940;2023-04-03T05:14:23;0.30;99.90
33594;DHT22;19920;52.242;20.940;2023-04-03T05:16:49;0.30;99.90
33594;DHT22;19920;52.242;20.940;2023-04-03T05:19:18;0.30;99.90
33594;DHT22;19920;52.242;20.940;2023-04-03T05:21:44;0.30;99.90
33594;DHT22;19920;52.242;20.940;2023-04-03T05:24:10;0.40;99.90
33594;DHT22;19920;52.242;20.940;2023-04-03T05:26:35;0.40;99.90
33594;DHT22;19920;52.242;20.940;2023-04-03T05:29:01;0.50;99.90
33594;DHT22;19920;52.242;20.940;2023-04-03T05:31:27;0.40;99.90
33594;DHT22;19920;52.242;20.940;2023-04-03T05:33:55;0.50;99.90
33594;DHT22;19920;52.242;20.940;2023-04-03T05:36:21;0.50;99.90
33594;DHT22;19920;52.242;20.940;2023-04-03T05:38:47;0.50;99.90
33594;DHT22;19920;52.242;20.940;2023-04-03T05:41:14;0.50;99.90
33594;DHT22;19920;52.242;20.940;2023-04-03T05:43:40;0.50;99.90
33594;DHT22;19920;52.242;20.940;2023-04-03T05:46:13;0.40;99.90
33594;DHT22;19920;52.242;20.940;2023-04-03T05:48:39;0.40;99.90
33594;DHT22;19920;52.242;20.940;2023-04-03T05:51:05;0.40;99.90
33594;DHT22;19920;52.242;20.940;2023-04-03T05:53:34;0.40;99.90
33594;DHT22;19920;52.242;20.940;2023-04-03T05:56:01;0.40;99.90
33594;DHT22;19920;52.242;20.940;2023-04-03T05:58:27;0.50;99.90
33594;DHT22;19920;52.242;20.940;2023-04-03T06:00:53;0.40;99.90
33594;DHT22;19920;52.242;20.940;2023-04-03T06:03:18;0.50;99.90
33594;DHT22;19920;52.242;20.940;2023-04-03T06:05:44;0.50;99.90
33594;DHT22;19920;52.242;20.940;2023-04-03T06:08:09;0.50;99.90
33594;DHT22;19920;52.242;20.940;2023-04-03T06:10:35;0.50;99.90
33594;DHT22;19920;52.242;20.940;2023-04-03T06:13:01;0.60;99.90
33594;DHT22;19920;52.242;20.940;2023-04-03T06:15:27;0.60;99.90
33594;DHT22;19920;52.242;20.940;2023-04-03T06:17:53;0.60;99.90
33594;DHT22;19920;52.242;20.940;2023-04-03T06:20:19;0.70;99.90
33594;DHT22;19920;52.242;20.940;2023-04-03T06:22:44;0.60;99.90
33594;DHT22;19920;52.242;20.940;2023-04-03T06:25:11;0.60;99.90
33594;DHT22;19920;52.242;20.940;2023-04-03T06:27:37;0.60;99.90
33594;DHT22;19920;52.242;20.940;2023-04-03T06:30:04;0.60;99.90
33594;DHT22;19920;52.242;20.940;2023-04-03T06:32:30;0.60;99.90
33594;DHT22;19920;52.242;20.940;2023-04-03T06:34:56;0.80;99.90
33594;DHT22;19920;52.242;20.940;2023-04-03T06:37:23;0.90;99.90
33594;DHT22;19920;52.242;20.940;2023-04-03T06:39:51;1.00;99.90
33594;DHT22;19920;52.242;20.940;2023-04-03T06:42:17;1.20;99.90
33594;DHT22;19920;52.242;20.940;2023-04-03T06:44:43;1.20;99.90
33594;DHT22;19920;52.242;20.940;2023-04-03T06:47:13;1.10;99.90
33594;DHT22;19920;52.242;20.940;2023-04-03T06:49:39;1.10;99.90
33594;DHT22;19920;52.242;20.940;2023-04-03T06:52:05;1.10;99.90
33594;DHT22;19920;52.242;20.940;2023-04-03T06:54:31;1.30;99.90
33594;DHT22;19920;52.242;20.940;2023-04-03T06:56:58;1.40;99.90
33594;DHT22;19920;52.242;20.940;2023-04-03T06:59:23;1.40;99.90
33594;DHT22;19920;52.242;20.940;2023-04-03T07:01:49;1.50;99.90
33594;DHT22;19920;52.242;20.940;2023-04-03T07:04:15;1.50;99.90
33594;DHT22;19920;52.242;20.940;2023-04-03T07:06:41;1.60;99.90
33594;DHT22;19920;52.242;20.940;2023-04-03T07:09:08;1.60;99.90
33594;DHT22;19920;52.242;20.940;2023-04-03T07:11:36;1.60;99.90
33594;DHT22;19920;52.242;20.940;2023-04-03T07:14:02;1.70;99.90
33594;DHT22;19920;52.242;20.940;2023-04-03T07:16:30;1.80;99.90
33594;DHT22;19920;52.242;20.940;2023-04-03T07:18:57;1.90;99.90
33594;DHT22;19920;52.242;20.940;2023-04-03T07:21:28;1.90;99.90
33594;DHT22;19920;52.242;20.940;2023-04-03T07:23:54;2.00;99.90
33594;DHT22;19920;52.242;20.940;2023-04-03T07:26:21;2.00;99.90
33594;DHT22;19920;52.242;20.940;2023-04-03T07:28:48;2.20;99.90
33594;DHT22;19920;52.242;20.940;2023-04-03T07:31:14;2.10;99.90
33594;DHT22;19920;52.242;20.940;2023-04-03T07:33:41;2.10;99.90
33594;DHT22;19920;52.242;20.940;2023-04-03T07:36:07;2.10;99.90
33594;DHT22;19920;52.242;20.940;2023-04-03T07:38:37;2.30;99.90
33594;DHT22;19920;52.242;20.940;2023-04-03T07:41:03;2.30;99.90
33594;DHT22;19920;52.242;20.940;2023-04-03T07:43:29;2.30;99.90
33594;DHT22;19920;52.242;20.940;2023-04-03T07:45:55;2.40;99.90
33594;DHT22;19920;52.242;20.940;2023-04-03T07:48:24;2.60;99.90
33594;DHT22;19920;52.242;20.940;2023-04-03T07:50:51;2.60;99.90
33594;DHT22;19920;52.242;20.940;2023-04-03T07:53:17;2.50;99.90
33594;DHT22;19920;52.242;20.940;2023-04-03T07:55:46;2.60;99.90
33594;DHT22;19920;52.242;20.940;2023-04-03T07:58:16;2.50;99.90
33594;DHT22;19920;52.242;20.940;2023-04-03T08:00:42;2.50;99.90
33594;DHT22;19920;52.242;20.940;2023-04-03T08:03:09;2.60;99.90
33594;DHT22;19920;52.242;20.940;2023-04-03T08:05:38;2.80;99.90
33594;DHT22;19920;52.242;20.940;2023-04-03T08:08:04;2.90;99.90
33594;DHT22;19920;52.242;20.940;2023-04-03T08:10:31;2.80;99.90
33594;DHT22;19920;52.242;20.940;2023-04-03T08:12:56;2.80;99.90
33594;DHT22;19920;52.242;20.940;2023-04-03T08:15:22;2.60;99.90
33594;DHT22;19920;52.242;20.940;2023-04-03T08:17:48;2.70;99.90
33594;DHT22;19920;52.242;20.940;2023-04-03T08:20:14;2.90;99.90
33594;DHT22;19920;52.242;20.940;2023-04-03T08:22:40;3.10;99.90
33594;DHT22;19920;52.242;20.940;2023-04-03T08:25:07;3.20;99.90
33594;DHT22;19920;52.242;20.940;2023-04-03T08:27:33;3.30;99.90
33594;DHT22;19920;52.242;20.940;2023-04-03T08:29:59;3.30;99.90
33594;DHT22;19920;52.242;20.940;2023-04-03T08:32:25;3.10;99.90
33594;DHT22;19920;52.242;20.940;2023-04-03T08:34:51;3.00;99.90
33594;DHT22;19920;52.242;20.940;2023-04-03T08:37:16;3.10;99.90
33594;DHT22;19920;52.242;20.940;2023-04-03T08:39:43;3.40;99.90
33594;DHT22;19920;52.242;20.940;2023-04-03T08:50:19;4.00;99.90
33594;DHT22;19920;52.242;20.940;2023-04-03T08:52:52;3.90;99.90
33594;DHT22;19920;52.242;20.940;2023-04-03T08:55:40;3.70;99.90
33594;DHT22;19920;52.242;20.940;2023-04-03T08:58:22;3.90;99.90
33594;DHT22;19920;52.242;20.940;2023-04-03T09:03:19;4.20;99.90
33594;DHT22;19920;52.242;20.940;2023-04-03T09:06:20;4.10;99.90
33594;DHT22;19920;52.242;20.940;2023-04-03T09:09:06;4.30;99.90
33594;DHT22;19920;52.242;20.940;2023-04-03T09:22:40;4.60;99.90
33594;DHT22;19920;52.242;20.940;2023-04-03T09:25:17;4.60;99.90
33594;DHT22;19920;52.242;20.940;2023-04-03T09:27:44;4.60;99.90
33594;DHT22;19920;52.242;20.940;2023-04-03T09:30:20;4.60;99.90
33594;DHT22;19920;52.242;20.940;2023-04-03T09:32:49;4.60;99.90
33594;DHT22;19920;52.242;20.940;2023-04-03T09:35:20;4.40;99.90
33594;DHT22;19920;52.242;20.940;2023-04-03T09:37:50;4.50;99.90
33594;DHT22;19920;52.242;20.940;2023-04-03T09:42:58;4.80;99.90
33594;DHT22;19920;52.242;20.940;2023-04-03T09:45:33;4.90;99.90
33594;DHT22;19920;52.242;20.940;2023-04-03T09:48:17;5.10;99.90
33594;DHT22;19920;52.242;20.940;2023-04-03T09:50:59;5.20;99.90
33594;DHT22;19920;52.242;20.940;2023-04-03T09:53:30;5.30;99.90
33594;DHT22;19920;52.242;20.940;2023-04-03T09:55:56;5.20;99.90
33594;DHT22;19920;52.242;20.940;2023-04-03T09:58:39;5.20;99.90
33594;DHT22;19920;52.242;20.940;2023-04-03T10:01:30;5.30;99.90
33594;DHT22;19920;52.242;20.940;2023-04-03T10:04:22;5.50;99.90
33594;DHT22;19920;52.242;20.940;2023-04-03T10:06:52;5.40;99.90
33594;DHT22;19920;52.242;20.940;2023-04-03T10:09:32;5.60;99.90
33594;DHT22;19920;52.242;20.940;2023-04-03T10:14:32;5.70;99.90
33594;DHT22;19920;52.242;20.940;2023-04-03T10:19:57;5.60;99.90
33594;DHT22;19920;52.242;20.940;2023-04-03T10:28:21;5.10;99.90
33594;DHT22;19920;52.242;20.940;2023-04-03T10:39:39;6.20;99.90
33594;DHT22;19920;52.242;20.940;2023-04-03T10:50:43;7.40;99.90
33594;DHT22;19920;52.242;20.940;2023-04-03T10:53:31;7.20;99.90
33594;DHT22;19920;52.242;20.940;2023-04-03T10:56:25;7.10;99.90
33594;DHT22;19920;52.242;20.940;2023-04-03T10:58:56;6.70;99.90
33594;DHT22;19920;52.242;20.940;2023-04-03T11:01:38;6.30;99.90
33594;DHT22;19920;52.242;20.940;2023-04-03T11:04:06;6.10;99.90
33594;DHT22;19920;52.242;20.940;2023-04-03T11:06:41;5.80;99.90
33594;DHT22;19920;52.242;20.940;2023-04-03T11:11:44;5.80;99.90
33594;DHT22;19920;52.242;20.940;2023-04-03T11:20:04;5.90;99.90
33594;DHT22;19920;52.242;20.940;2023-04-03T11:22:42;6.20;99.90
33594;DHT22;19920;52.242;20.940;2023-04-03T11:27:58;7.30;99.90
33594;DHT22;19920;52.242;20.940;2023-04-03T11:30:53;7.30;99.90
33594;DHT22;19920;52.242;20.940;2023-04-03T11:33:58;6.70;99.90
33594;DHT22;19920;52.242;20.940;2023-04-03T11:36:28;6.20;99.90
33594;DHT22;19920;52.242;20.940;2023-04-03T11:38:58;6.20;99.90
33594;DHT22;19920;52.242;20.940;2023-04-03T11:41:33;6.50;99.90
33594;DHT22;19920;52.242;20.940;2023-04-03T11:44:28;6.70;99.90
33594;DHT22;19920;52.242;20.940;2023-04-03T11:46:53;6.80;99.90
33594;DHT22;19920;52.242;20.940;2023-04-03T12:00:50;7.60;99.90
33594;DHT22;19920;52.242;20.940;2023-04-03T12:05:48;6.80;99.90
33594;DHT22;19920;52.242;20.940;2023-04-03T12:13:40;7.00;99.90
33594;DHT22;19920;52.242;20.940;2023-04-03T12:16:29;6.80;99.90
33594;DHT22;19920;52.242;20.940;2023-04-03T12:26:43;7.80;99.90
33594;DHT22;19920;52.242;20.940;2023-04-03T12:29:14;7.70;99.90
33594;DHT22;19920;52.242;20.940;2023-04-03T12:45:26;8.50;99.90
33594;DHT22;19920;52.242;20.940;2023-04-03T12:47:55;9.00;99.90
33594;DHT22;19920;52.242;20.940;2023-04-03T12:50:30;8.40;99.90
33594;DHT22;19920;52.242;20.940;2023-04-03T12:52:57;7.80;99.90
33594;DHT22;19920;52.242;20.940;2023-04-03T12:55:24;7.10;99.90
33594;DHT22;19920;52.242;20.940;2023-04-03T12:57:51;7.20;99.90
33594;DHT22;19920;52.242;20.940;2023-04-03T13:02:54;8.50;99.90
33594;DHT22;19920;52.242;20.940;2023-04-03T13:05:21;8.60;99.90
33594;DHT22;19920;52.242;20.940;2023-04-03T13:07:57;8.20;99.90
33594;DHT22;19920;52.242;20.940;2023-04-03T13:10:23;7.70;99.90
33594;DHT22;19920;52.242;20.940;2023-04-03T13:15:29;7.30;99.90
33594;DHT22;19920;52.242;20.940;2023-04-03T13:17:56;6.90;99.90
33594;DHT22;19920;52.242;20.940;2023-04-03T13:20:29;6.90;99.90
33594;DHT22;19920;52.242;20.940;2023-04-03T13:23:08;6.90;99.90
33594;DHT22;19920;52.242;20.940;2023-04-03T13:25:41;6.80;99.90
33594;DHT22;19920;52.242;20.940;2023-04-03T13:28:12;7.30;99.90
33594;DHT22;19920;52.242;20.940;2023-04-03T13:30:39;8.30;99.90
33594;DHT22;19920;52.242;20.940;2023-04-03T13:33:20;8.50;99.90
33594;DHT22;19920;52.242;20.940;2023-04-03T13:35:47;8.20;99.90
33594;DHT22;19920;52.242;20.940;2023-04-03T13:46:55;7.20;99.90
33594;DHT22;19920;52.242;20.940;2023-04-03T13:49:33;7.20;99.90
33594;DHT22;19920;52.242;20.940;2023-04-03T13:52:00;7.70;99.90
33594;DHT22;19920;52.242;20.940;2023-04-03T13:54:36;8.20;99.90
33594;DHT22;19920;52.242;20.940;2023-04-03T13:57:12;8.70;99.90
33594;DHT22;19920;52.242;20.940;2023-04-03T13:59:38;8.80;99.90
33594;DHT22;19920;52.242;20.940;2023-04-03T14:04:31;8.50;99.90
33594;DHT22;19920;52.242;20.940;2023-04-03T14:06:59;8.20;99.90
33594;DHT22;19920;52.242;20.940;2023-04-03T14:09:27;7.90;99.90
33594;DHT22;19920;52.242;20.940;2023-04-03T14:12:00;7.90;99.90
33594;DHT22;19920;52.242;20.940;2023-04-03T14:14:31;7.60;99.90
33594;DHT22;19920;52.242;20.940;2023-04-03T14:17:00;7.40;99.90
33594;DHT22;19920;52.242;20.940;2023-04-03T14:19:32;7.50;99.90
33594;DHT22;19920;52.242;20.940;2023-04-03T14:22:01;7.40;99.90
33594;DHT22;19920;52.242;20.940;2023-04-03T14:24:31;7.20;99.90
33594;DHT22;19920;52.242;20.940;2023-04-03T14:26:57;7.20;99.90
33594;DHT22;19920;52.242;20.940;2023-04-03T14:29:23;7.10;99.90
33594;DHT22;19920;52.242;20.940;2023-04-03T14:31:49;7.00;99.90
33594;DHT22;19920;52.242;20.940;2023-04-03T14:34:16;6.90;99.90
33594;DHT22;19920;52.242;20.940;2023-04-03T14:36:43;7.00;99.90
33594;DHT22;19920;52.242;20.940;2023-04-03T14:39:17;7.00;99.90
33594;DHT22;19920;52.242;20.940;2023-04-03T14:41:44;6.80;99.90
33594;DHT22;19920;52.242;20.940;2023-04-03T14:44:09;6.80;99.90
33594;DHT22;19920;52.242;20.940;2023-04-03T14:46:38;6.70;99.90
33594;DHT22;19920;52.242;20.940;2023-04-03T14:49:17;6.50;99.90
33594;DHT22;19920;52.242;20.940;2023-04-03T14:51:43;6.30;99.90
33594;DHT22;19920;52.242;20.940;2023-04-03T14:54:18;6.30;99.90
33594;DHT22;19920;52.242;20.940;2023-04-03T14:56:47;6.30;99.90
33594;DHT22;19920;52.242;20.940;2023-04-03T14:59:13;6.30;99.90
33594;DHT22;19920;52.242;20.940;2023-04-03T15:01:39;6.20;99.90
33594;DHT22;19920;52.242;20.940;2023-04-03T15:04:14;6.20;99.90
33594;DHT22;19920;52.242;20.940;2023-04-03T15:06:41;6.30;99.90
33594;DHT22;19920;52.242;20.940;2023-04-03T15:11:40;6.30;99.90
33594;DHT22;19920;52.242;20.940;2023-04-03T15:14:09;6.10;99.90
33594;DHT22;19920;52.242;20.940;2023-04-03T15:16:34;6.10;99.90
33594;DHT22;19920;52.242;20.940;2023-04-03T15:19:01;6.10;99.90
33594;DHT22;19920;52.242;20.940;2023-04-03T15:21:27;6.00;99.90
33594;DHT22;19920;52.242;20.940;2023-04-03T15:23:53;5.90;99.90
33594;DHT22;19920;52.242;20.940;2023-04-03T15:26:18;6.00;99.90
33594;DHT22;19920;52.242;20.940;2023-04-03T15:28:44;6.00;99.90
33594;DHT22;19920;52.242;20.940;2023-04-03T15:31:10;6.10;99.90
33594;DHT22;19920;52.242;20.940;2023-04-03T15:33:36;6.10;99.90
33594;DHT22;19920;52.242;20.940;2023-04-03T15:36:03;6.00;99.90
33594;DHT22;19920;52.242;20.940;2023-04-03T15:38:29;5.80;99.90
33594;DHT22;19920;52.242;20.940;2023-04-03T15:40:56;5.90;99.90
33594;DHT22;19920;52.242;20.940;2023-04-03T15:43:22;5.80;99.90
33594;DHT22;19920;52.242;20.940;2023-04-03T15:45:49;5.70;99.90
33594;DHT22;19920;52.242;20.940;2023-04-03T15:48:15;5.60;99.90
33594;DHT22;19920;52.242;20.940;2023-04-03T15:50:41;5.70;99.90
33594;DHT22;19920;52.242;20.940;2023-04-03T15:53:07;5.60;99.90
33594;DHT22;19920;52.242;20.940;2023-04-03T15:55:35;5.70;99.90
33594;DHT22;19920;52.242;20.940;2023-04-03T15:58:01;5.60;99.90
33594;DHT22;19920;52.242;20.940;2023-04-03T16:00:27;5.40;99.90
33594;DHT22;19920;52.242;20.940;2023-04-03T16:02:58;5.40;99.90
33594;DHT22;19920;52.242;20.940;2023-04-03T16:05:25;5.40;99.90
33594;DHT22;19920;52.242;20.940;2023-04-03T16:07:51;5.40;99.90
33594;DHT22;19920;52.242;20.940;2023-04-03T16:10:17;5.40;99.90
33594;DHT22;19920;52.242;20.940;2023-04-03T16:12:44;5.40;99.90
33594;DHT22;19920;52.242;20.940;2023-04-03T16:15:10;5.50;99.90
33594;DHT22;19920;52.242;20.940;2023-04-03T16:17:37;5.50;99.90
33594;DHT22;19920;52.242;20.940;2023-04-03T16:20:05;5.50;99.90
33594;DHT22;19920;52.242;20.940;2023-04-03T16:22:32;5.40;99.90
33594;DHT22;19920;52.242;20.940;2023-04-03T16:24:58;5.40;99.90
33594;DHT22;19920;52.242;20.940;2023-04-03T16:27:24;5.30;99.90
33594;DHT22;19920;52.242;20.940;2023-04-03T16:29:54;5.30;99.90
33594;DHT22;19920;52.242;20.940;2023-04-03T16:32:20;5.30;99.90
33594;DHT22;19920;52.242;20.940;2023-04-03T16:34:46;5.30;99.90
33594;DHT22;19920;52.242;20.940;2023-04-03T16:37:11;5.30;99.90
33594;DHT22;19920;52.242;20.940;2023-04-03T16:39:37;5.30;99.90
33594;DHT22;19920;52.242;20.940;2023-04-03T16:42:03;5.20;99.90
33594;DHT22;19920;52.242;20.940;2023-04-03T16:44:28;5.20;99.90
33594;DHT22;19920;52.242;20.940;2023-04-03T16:46:55;5.10;99.90
33594;DHT22;19920;52.242;20.940;2023-04-03T16:49:21;5.10;99.90
33594;DHT22;19920;52.242;20.940;2023-04-03T16:51:48;5.10;99.90
33594;DHT22;19920;52.242;20.940;2023-04-03T16:54:14;5.10;99.90
33594;DHT22;19920;52.242;20.940;2023-04-03T16:56:40;5.00;99.90
33594;DHT22;19920;52.242;20.940;2023-04-03T16:59:05;4.90;99.90
33594;DHT22;19920;52.242;20.940;2023-04-03T17:01:31;4.90;99.90
33594;DHT22;19920;52.242;20.940;2023-04-03T17:03:57;4.90;99.90
33594;DHT22;19920;52.242;20.940;2023-04-03T17:06:23;4.90;99.90
33594;DHT22;19920;52.242;20.940;2023-04-03T17:08:50;4.90;99.90
33594;DHT22;19920;52.242;20.940;2023-04-03T17:11:17;4.80;99.90
33594;DHT22;19920;52.242;20.940;2023-04-03T17:13:43;4.80;99.90
33594;DHT22;19920;52.242;20.940;2023-04-03T17:16:12;4.90;99.90
33594;DHT22;19920;52.242;20.940;2023-04-03T17:18:38;4.90;99.90
33594;DHT22;19920;52.242;20.940;2023-04-03T17:21:05;4.80;99.90
33594;DHT22;19920;52.242;20.940;2023-04-03T17:23:32;4.80;99.90
33594;DHT22;19920;52.242;20.940;2023-04-03T17:26:00;4.80;99.90
33594;DHT22;19920;52.242;20.940;2023-04-03T17:28:26;4.80;99.90
33594;DHT22;19920;52.242;20.940;2023-04-03T17:30:56;4.80;99.90
33594;DHT22;19920;52.242;20.940;2023-04-03T17:33:24;4.80;99.90
33594;DHT22;19920;52.242;20.940;2023-04-03T17:35:50;4.80;99.90
33594;DHT22;19920;52.242;20.940;2023-04-03T17:38:16;4.80;99.90
33594;DHT22;19920;52.242;20.940;2023-04-03T17:40:42;4.70;99.90
33594;DHT22;19920;52.242;20.940;2023-04-03T17:43:09;4.50;99.90
33594;DHT22;19920;52.242;20.940;2023-04-03T17:45:35;4.50;99.90
33594;DHT22;19920;52.242;20.940;2023-04-03T17:48:01;4.60;99.90